METAR stanice u blizini

 

LYBE - Beograd / Surčin, Srbija
Ažurirano: 20/09/2020 21:30
Vedro
Vedro
 Pravac vetra I
Vetar: I 15 km/h
Temperatura: 19°C
Tačka rose: 6°C
Vlažnost: 43%
Pritisak: 1018 hPa
Pregled: Vedro
Vidljivost: greater than 10 km
2020/09/20 19:30 LYBE 201930Z 10008KT CAVOK 19/06 Q1018 NOSIG
LYBT - Beograd / Batajnica, Srbija
Ažurirano: 20/09/2020 21:30
Vedro
Vedro
 Pravac vetra ISI
Vetar: ISI 11 km/h
Temperatura: 18°C
Tačka rose: 6°C
Vlažnost: 46%
Pritisak: 1017 hPa
Pregled: Vedro
Vidljivost: greater than 10 km
2020/09/20 19:30 LYBT 201930Z 07006KT 030V100 CAVOK 18/06 Q1017 NOSIG
LYVR - Vršac, Srbija
Ažurirano: 20/09/2020 21:30
Vedro
Vedro
 Pravac vetra JI
Vetar: JI 17 km/h
Temperatura: 20°C
Tačka rose: 5°C
Vlažnost: 38%
Pritisak: 1018 hPa
Pregled: Vedro
Vidljivost: greater than 10 km
2020/09/20 19:30 LYVR 201930Z AUTO 14009KT 090V190 CAVOK 20/05 Q1018
 
LYKV - Lađevci, Srbija
Ažurirano: 20/09/2020 21:30
Vedro
Vedro
 Pravac vetra calm
Vetar: Tišina
Temperatura: 14°C
Tačka rose: 10°C
Vlažnost: 77%
Pritisak: 1018 hPa
Pregled: Vedro
Vidljivost: greater than 10 km
2020/09/20 19:30 LYKV 201930Z 00000KT CAVOK 14/10 Q1018 NOSIG
LYNI - Niš, Srbija
Ažurirano: 20/09/2020 21:30
Vedro
Vedro
 Pravac vetra SSZ
Vetar: SSZ 7 km/h
Temperatura: 18°C
Tačka rose: 3°C
Vlažnost: 37%
Pritisak: 1018 hPa
Pregled: Vedro
Vidljivost: greater than 10 km
2020/09/20 19:30 LYNI 201930Z 33004KT CAVOK 18/03 Q1018 NOSIG
BKPR - Priština, Srbija
Ažurirano: 20/09/2020 21:30
Vedro
Vedro
 Pravac vetra varies
Vetar: varies 4 km/h
Temperatura: 16°C
Tačka rose: 6°C
Vlažnost: 52%
Pritisak: 1019 hPa
Pregled: Vedro
Vidljivost: greater than 10 km
2020/09/20 19:30 BKPR 201930Z VRB02KT CAVOK 16/06 Q1019 NOSIG
 
LHPP - Pecs / Pogany, Hungary
Ažurirano: 20/09/2020 19:45
NOT Current
Vedro
Vedro
 Pravac vetra I
Vetar: I 7 km/h
Temperatura: 20°C
Tačka rose: 10°C
Vlažnost: 53%
Pritisak: 1017 hPa
Pregled: Vedro
Vidljivost: greater than 10 km
2020/09/20 17:45 LHPP 201745Z 09004KT CAVOK 20/10 Q1017
LHUD - Szeged, Hungary
Ažurirano: 04/07/2019 01:45
NOT Current
Vedro
Vedro
 Pravac vetra S
Vetar: S 7 km/h
Temperatura: 18°C
Tačka rose: 13°C
Vlažnost: 73%
Pritisak: 1019 hPa
Pregled: Vedro
Vidljivost: greater than 10 km
2019/07/03 23:45 LHUD 032345Z 35004KT CAVOK 18/13 Q1019
LRTR - Timisoara, Romania
Ažurirano: 20/09/2020 21:30
Vedro
Vedro
 Pravac vetra I
Vetar: I 7 km/h
Temperatura: 16°C
Tačka rose: 8°C
Vlažnost: 59%
Pritisak: 1018 hPa
Pregled: Vedro
Vidljivost: greater than 10 km
2020/09/20 19:30 LRTR 201930Z 10004KT 070V130 CAVOK 16/08 Q1018 NOSIG
 
LRCV - Craiova, Romania
Ažurirano: 20/09/2020 21:30
Vedro
Vedro
 Pravac vetra IJI
Vetar: IJI 7 km/h
Temperatura: 16°C
Tačka rose: 2°C
Vlažnost: 39%
Pritisak: 1020 hPa
Pregled: Vedro
Vidljivost: greater than 10 km
2020/09/20 19:30 LRCV 201930Z 11004KT CAVOK 16/02 Q1020
LBSF - Sofia, Bulgaria
Ažurirano: 20/09/2020 21:30
Vedro
Vedro
 Pravac vetra IJI
Vetar: IJI 7 km/h
Temperatura: 13°C
Tačka rose: 3°C
Vlažnost: 51%
Pritisak: 1020 hPa
Pregled: Vedro
Vidljivost: greater than 10 km
2020/09/20 19:30 LBSF 201930Z 12004KT CAVOK 13/03 Q1020 NOSIG
LWSK - Skoplje, Makedonija
Ažurirano: 20/09/2020 21:30
Vedro
Vedro
 Pravac vetra varies
Vetar: varies 4 km/h
Temperatura: 19°C
Tačka rose: 9°C
Vlažnost: 52%
Pritisak: 1017 hPa
Pregled: Vedro
Vidljivost: greater than 10 km
2020/09/20 19:30 LWSK 201930Z VRB02KT CAVOK 19/09 Q1017 NOSIG
 
LYPG - Podgorica, Crna Gora
Ažurirano: 20/09/2020 21:30
Vedro
Vedro
 Pravac vetra Z
Vetar: Z 6 km/h
Temperatura: 23°C
Tačka rose: 14°C
Vlažnost: 57%
Pritisak: 1015 hPa
Pregled: Vedro
Vidljivost: greater than 10 km
2020/09/20 19:30 LYPG 201930Z 27003KT 230V330 CAVOK 23/14 Q1015 NOSIG
LQSA - Sarajevo, Bosna i Hercegovina
Ažurirano: 20/09/2020 21:30
Vedro
Vedro
 Pravac vetra JI
Vetar: JI 7 km/h
Temperatura: 17°C
Tačka rose: 15°C
Vlažnost: 88%
Pritisak: 1018 hPa
Pregled: Vedro
Vidljivost: greater than 10 km
2020/09/20 19:30 LQSA 201930Z 13004KT 110V170 CAVOK 17/15 Q1018 NOSIG
LDOS - Osijek, Hrvatksa
Ažurirano: 20/09/2020 21:30
Vedro
Vedro
 Pravac vetra I
Vetar: I 11 km/h
Temperatura: 16°C
Tačka rose: 9°C
Vlažnost: 63%
Pritisak: 1017 hPa
Pregled: Vedro
Vidljivost: greater than 10 km
2020/09/20 19:30 LDOS 201930Z 09006KT CAVOK 16/09 Q1017